sim
Sign-in with your pilot id or email,
or register
Callsign
Passwort

Schedule Details

Flight Number: DLH1809
Departure: Barcelona El Prat Airport (LEBL) at 08:10
Arrival: Munich Airport (EDDM) at 10:10
Route: Lufthansa Passenger Schedule. Enter filed route here before submitting Pirep.

Weather Information
Getting current METAR information for LEBL 201730Z 24015KT 9999 FEW025 25/16 Q1014 NOSIG
Getting current METAR information for EDDM 201720Z 03003KT 360V060 CAVOK 19/11 Q1015 NOSIG

Schedule Frequency

Route Map